sensor_id;sensor_type;location;lat;lon;timestamp;pressure;altitude;pressure_sealevel;temperature;humidity
6680;BME280;3376;42.664;23.346;2024-02-21T21:02:10;95067.69;;;5.70;100.00
6680;BME280;3376;42.664;23.346;2024-02-21T21:04:37;95064.19;;;5.81;100.00
6680;BME280;3376;42.664;23.346;2024-02-21T21:07:04;95066.38;;;5.95;100.00
6680;BME280;3376;42.664;23.346;2024-02-21T21:09:32;95015.03;;;5.74;100.00
6680;BME280;3376;42.664;23.346;2024-02-21T21:11:59;95060.72;;;6.20;100.00
6680;BME280;3376;42.664;23.346;2024-02-21T21:14:26;95028.63;;;6.15;100.00
6680;BME280;3376;42.664;23.346;2024-02-21T21:16:54;95058.78;;;6.51;100.00
6680;BME280;3376;42.664;23.346;2024-02-21T21:19:22;95066.22;;;6.54;100.00
6680;BME280;3376;42.664;23.346;2024-02-21T21:21:52;95034.69;;;6.42;100.00
6680;BME280;3376;42.664;23.346;2024-02-21T21:24:21;95053.50;;;6.52;100.00
6680;BME280;3376;42.664;23.346;2024-02-21T21:26:48;95059.19;;;6.56;100.00
6680;BME280;3376;42.664;23.346;2024-02-21T21:29:15;95069.72;;;6.72;100.00
6680;BME280;3376;42.664;23.346;2024-02-21T21:31:42;95078.09;;;6.83;100.00
6680;BME280;3376;42.664;23.346;2024-02-21T21:34:09;95077.00;;;6.86;100.00
6680;BME280;3376;42.664;23.346;2024-02-21T21:36:38;95061.53;;;6.86;100.00
6680;BME280;3376;42.664;23.346;2024-02-21T21:39:05;95069.56;;;6.83;100.00
6680;BME280;3376;42.664;23.346;2024-02-21T21:41:32;95057.50;;;6.83;100.00
6680;BME280;3376;42.664;23.346;2024-02-21T21:44:00;95077.41;;;6.81;100.00
6680;BME280;3376;42.664;23.346;2024-02-21T21:46:27;95077.41;;;6.81;100.00
6680;BME280;3376;42.664;23.346;2024-02-21T21:48:54;95075.09;;;6.88;100.00
6680;BME280;3376;42.664;23.346;2024-02-21T21:51:21;95083.50;;;6.90;100.00
6680;BME280;3376;42.664;23.346;2024-02-21T21:53:54;95079.16;;;6.90;100.00
6680;BME280;3376;42.664;23.346;2024-02-21T21:56:21;95082.00;;;6.87;100.00
6680;BME280;3376;42.664;23.346;2024-02-21T21:58:48;95082.81;;;6.97;100.00
6680;BME280;3376;42.664;23.346;2024-02-21T22:01:15;95080.81;;;6.82;100.00
6680;BME280;3376;42.664;23.346;2024-02-21T22:03:43;95079.84;;;6.83;100.00
6680;BME280;3376;42.664;23.346;2024-02-21T22:06:10;95076.63;;;6.71;100.00
6680;BME280;3376;42.664;23.346;2024-02-21T22:08:39;95082.31;;;6.65;100.00
6680;BME280;3376;42.664;23.346;2024-02-21T22:11:07;95066.75;;;6.57;100.00
6680;BME280;3376;42.664;23.346;2024-02-21T22:13:38;95071.63;;;6.60;100.00
6680;BME280;3376;42.664;23.346;2024-02-21T22:16:06;95072.44;;;6.61;100.00
6680;BME280;3376;42.664;23.346;2024-02-21T22:18:33;95067.59;;;6.58;100.00
6680;BME280;3376;42.664;23.346;2024-02-21T22:21:00;95066.19;;;6.63;100.00
6680;BME280;3376;42.664;23.346;2024-02-21T22:23:27;95041.69;;;6.50;100.00
6680;BME280;3376;42.664;23.346;2024-02-21T22:25:54;95057.16;;;6.50;100.00
6680;BME280;3376;42.664;23.346;2024-02-21T22:28:23;95067.72;;;6.47;100.00
6680;BME280;3376;42.664;23.346;2024-02-21T22:30:50;95070.28;;;6.47;100.00
6680;BME280;3376;42.664;23.346;2024-02-21T22:33:17;95073.44;;;6.41;100.00
6680;BME280;3376;42.664;23.346;2024-02-21T22:35:44;95069.09;;;6.32;100.00
6680;BME280;3376;42.664;23.346;2024-02-21T22:38:11;95067.31;;;6.23;100.00
6680;BME280;3376;42.664;23.346;2024-02-21T22:40:38;95076.41;;;6.17;100.00
6680;BME280;3376;42.664;23.346;2024-02-21T22:43:05;95076.94;;;6.11;100.00
6680;BME280;3376;42.664;23.346;2024-02-21T22:45:33;95068.53;;;6.09;100.00
6680;BME280;3376;42.664;23.346;2024-02-21T22:48:00;95074.09;;;6.05;100.00
6680;BME280;3376;42.664;23.346;2024-02-21T22:50:27;95071.53;;;6.05;100.00
6680;BME280;3376;42.664;23.346;2024-02-21T22:52:54;95050.00;;;5.86;100.00
6680;BME280;3376;42.664;23.346;2024-02-21T22:55:21;95064.47;;;5.97;100.00
6680;BME280;3376;42.664;23.346;2024-02-21T22:57:48;95065.03;;;6.01;100.00
6680;BME280;3376;42.664;23.346;2024-02-21T23:00:16;95054.75;;;5.91;100.00
6680;BME280;3376;42.664;23.346;2024-02-21T23:02:44;94957.38;;;5.20;100.00
6680;BME280;3376;42.664;23.346;2024-02-21T23:05:11;95061.78;;;5.98;100.00
6680;BME280;3376;42.664;23.346;2024-02-21T23:07:38;95054.88;;;5.99;100.00
6680;BME280;3376;42.664;23.346;2024-02-21T23:10:06;95045.66;;;5.96;100.00
6680;BME280;3376;42.664;23.346;2024-02-21T23:12:33;95055.81;;;6.08;100.00
6680;BME280;3376;42.664;23.346;2024-02-21T23:15:00;95023.56;;;5.75;100.00
6680;BME280;3376;42.664;23.346;2024-02-21T23:17:27;95063.66;;;5.96;100.00
6680;BME280;3376;42.664;23.346;2024-02-21T23:19:55;95059.22;;;6.18;100.00
6680;BME280;3376;42.664;23.346;2024-02-21T23:22:22;95063.44;;;6.19;100.00
6680;BME280;3376;42.664;23.346;2024-02-21T23:24:49;95063.41;;;6.09;100.00
6680;BME280;3376;42.664;23.346;2024-02-21T23:27:16;95057.03;;;6.04;100.00
6680;BME280;3376;42.664;23.346;2024-02-21T23:29:43;95049.31;;;5.84;100.00
6680;BME280;3376;42.664;23.346;2024-02-21T23:32:10;95061.50;;;5.82;100.00
6680;BME280;3376;42.664;23.346;2024-02-21T23:34:38;95065.53;;;5.75;100.00
6680;BME280;3376;42.664;23.346;2024-02-21T23:37:06;95053.69;;;5.54;100.00
6680;BME280;3376;42.664;23.346;2024-02-21T23:39:33;95059.09;;;5.41;100.00
6680;BME280;3376;42.664;23.346;2024-02-21T23:42:00;95050.28;;;5.34;100.00
6680;BME280;3376;42.664;23.346;2024-02-21T23:44:27;95054.38;;;5.46;100.00
6680;BME280;3376;42.664;23.346;2024-02-21T23:46:55;95033.00;;;5.46;100.00
6680;BME280;3376;42.664;23.346;2024-02-21T23:49:22;95033.00;;;5.46;100.00
6680;BME280;3376;42.664;23.346;2024-02-21T23:51:51;95050.25;;;5.25;100.00
6680;BME280;3376;42.664;23.346;2024-02-21T23:54:21;95050.25;;;5.25;100.00
6680;BME280;3376;42.664;23.346;2024-02-21T23:56:48;95042.47;;;5.06;100.00
6680;BME280;3376;42.664;23.346;2024-02-21T23:59:15;95039.59;;;4.90;100.00
